createdAt,value
2018-10-19T00:02:09.927Z,68.10
2018-10-19T00:04:38.183Z,67.90
2018-10-19T00:07:06.514Z,67.60
2018-10-19T00:09:35.959Z,67.50
2018-10-19T00:12:04.697Z,67.80
2018-10-19T00:14:32.993Z,68.10
2018-10-19T00:17:01.277Z,68.30
2018-10-19T00:19:30.052Z,68.40
2018-10-19T00:21:58.400Z,68.60
2018-10-19T00:24:27.199Z,68.70
2018-10-19T00:26:55.591Z,68.90
2018-10-19T00:29:23.867Z,69.10
2018-10-19T00:31:52.554Z,69.30
2018-10-19T00:34:20.830Z,69.40
2018-10-19T00:36:50.462Z,69.50
2018-10-19T00:39:19.182Z,69.10
2018-10-19T00:41:47.469Z,69.20
2018-10-19T00:44:15.972Z,69.30
2018-10-19T00:46:44.292Z,69.80
2018-10-19T00:49:12.571Z,70.20
2018-10-19T00:51:41.254Z,70.40
2018-10-19T00:54:09.905Z,70.00
2018-10-19T00:56:38.382Z,69.70
2018-10-19T00:59:06.903Z,69.70
2018-10-19T01:01:35.480Z,70.00
2018-10-19T01:04:03.824Z,70.10
2018-10-19T01:06:32.347Z,70.30
2018-10-19T01:09:01.032Z,70.70
2018-10-19T01:11:29.594Z,70.70
2018-10-19T01:13:58.117Z,70.30
2018-10-19T01:16:26.728Z,70.20
2018-10-19T01:18:54.983Z,70.70
2018-10-19T01:21:23.747Z,70.90
2018-10-19T01:23:52.087Z,70.80
2018-10-19T01:26:20.407Z,70.60
2018-10-19T01:28:48.978Z,70.30
2018-10-19T01:31:17.403Z,70.60
2018-10-19T01:33:46.265Z,71.10
2018-10-19T01:36:14.558Z,70.70
2018-10-19T01:38:43.247Z,70.80
2018-10-19T01:41:11.604Z,70.80
2018-10-19T01:43:40.231Z,70.50
2018-10-19T01:46:08.490Z,70.70
2018-10-19T01:48:37.300Z,71.10
2018-10-19T01:51:05.998Z,70.80
2018-10-19T01:53:34.733Z,71.20
2018-10-19T01:56:03.239Z,70.90
2018-10-19T01:58:31.927Z,71.50
2018-10-19T02:01:00.187Z,70.40
2018-10-19T02:03:28.473Z,70.50
2018-10-19T02:05:57.015Z,70.40
2018-10-19T02:08:25.337Z,70.10
2018-10-19T02:10:53.946Z,70.10
2018-10-19T02:13:22.277Z,70.00
2018-10-19T02:15:51.013Z,69.80
2018-10-19T02:18:19.717Z,69.70
2018-10-19T02:20:48.463Z,69.30
2018-10-19T02:23:17.027Z,69.60
2018-10-19T02:25:45.666Z,70.00
2018-10-19T02:28:14.269Z,69.80
2018-10-19T02:30:42.910Z,70.40
2018-10-19T02:33:11.556Z,70.40
2018-10-19T02:35:39.878Z,70.50
2018-10-19T02:38:08.155Z,70.40
2018-10-19T02:40:36.403Z,70.50
2018-10-19T02:43:05.225Z,70.60
2018-10-19T02:45:34.211Z,70.80
2018-10-19T02:48:03.167Z,70.80
2018-10-19T02:50:31.455Z,70.40
2018-10-19T02:53:00.129Z,70.60
2018-10-19T02:55:28.598Z,71.20
2018-10-19T02:57:56.839Z,70.40
2018-10-19T03:00:25.689Z,69.50
2018-10-19T03:02:54.321Z,69.20
2018-10-19T03:05:22.911Z,69.50
2018-10-19T03:07:51.720Z,69.10
2018-10-19T03:10:20.528Z,69.50
2018-10-19T03:12:48.875Z,69.20
2018-10-19T03:15:17.281Z,69.50
2018-10-19T03:17:45.588Z,70.40
2018-10-19T03:20:14.188Z,71.10
2018-10-19T03:22:42.787Z,70.90
2018-10-19T03:25:11.420Z,70.90
2018-10-19T03:27:39.753Z,72.30
2018-10-19T03:30:08.924Z,71.40
2018-10-19T03:32:37.602Z,71.90
2018-10-19T03:35:06.629Z,71.70
2018-10-19T03:37:34.991Z,71.40
2018-10-19T03:40:03.422Z,70.70
2018-10-19T03:42:32.047Z,70.40
2018-10-19T03:45:00.343Z,70.10
2018-10-19T03:47:28.645Z,70.30
2018-10-19T03:49:57.175Z,70.60
2018-10-19T03:52:25.459Z,71.30
2018-10-19T03:54:53.731Z,71.00
2018-10-19T03:57:22.528Z,71.20
2018-10-19T03:59:51.203Z,71.30
2018-10-19T04:02:19.502Z,71.20
2018-10-19T04:04:48.083Z,70.00
2018-10-19T04:07:17.267Z,71.00
2018-10-19T04:09:46.048Z,70.40
2018-10-19T04:12:14.554Z,70.30
2018-10-19T04:14:42.882Z,70.20
2018-10-19T04:17:11.372Z,70.70
2018-10-19T04:19:40.087Z,71.40
2018-10-19T04:22:08.696Z,71.00
2018-10-19T04:24:37.212Z,71.00
2018-10-19T04:27:05.895Z,71.10
2018-10-19T04:29:35.806Z,71.30
2018-10-19T04:32:04.327Z,71.70
2018-10-19T04:34:32.615Z,71.90
2018-10-19T04:37:04.183Z,72.30
2018-10-19T04:39:32.612Z,72.30
2018-10-19T04:42:01.414Z,72.60
2018-10-19T04:44:29.983Z,72.60
2018-10-19T04:46:58.764Z,72.60
2018-10-19T04:49:27.464Z,72.30
2018-10-19T04:51:55.698Z,72.70
2018-10-19T04:54:23.979Z,73.00
2018-10-19T04:56:52.339Z,72.60
2018-10-19T04:59:20.875Z,72.60
2018-10-19T05:01:49.419Z,72.00
2018-10-19T05:04:17.979Z,72.40
2018-10-19T05:06:46.499Z,72.80
2018-10-19T05:09:14.707Z,72.50
2018-10-19T05:11:42.951Z,72.70
2018-10-19T05:14:11.347Z,73.00
2018-10-19T05:16:39.689Z,73.00
2018-10-19T05:19:08.575Z,73.50
2018-10-19T05:21:37.464Z,73.60
2018-10-19T05:24:05.917Z,73.20
2018-10-19T05:26:34.560Z,73.10
2018-10-19T05:29:02.883Z,73.20
2018-10-19T05:31:31.159Z,73.50
2018-10-19T05:33:59.476Z,74.10
2018-10-19T05:36:27.990Z,74.10
2018-10-19T05:38:56.324Z,75.00
2018-10-19T05:41:24.977Z,74.50
2018-10-19T05:43:53.391Z,74.70
2018-10-19T05:46:21.722Z,74.30
2018-10-19T05:48:50.325Z,74.10
2018-10-19T05:51:18.588Z,74.80
2018-10-19T05:53:47.279Z,74.70
2018-10-19T05:56:15.952Z,75.20
2018-10-19T05:58:44.172Z,75.10
2018-10-19T06:01:12.491Z,75.00
2018-10-19T06:03:40.895Z,75.40
2018-10-19T06:06:09.188Z,75.60
2018-10-19T06:08:37.487Z,76.00
2018-10-19T06:11:06.182Z,76.00
2018-10-19T06:13:34.498Z,75.50
2018-10-19T06:16:02.752Z,75.20
2018-10-19T06:18:31.502Z,75.30
2018-10-19T06:20:59.998Z,74.90
2018-10-19T06:23:28.567Z,75.60
2018-10-19T06:25:57.461Z,75.80
2018-10-19T06:28:25.646Z,76.70
2018-10-19T06:30:53.951Z,77.20
2018-10-19T06:33:22.268Z,77.00
2018-10-19T06:35:50.724Z,76.70
2018-10-19T06:38:19.027Z,77.60
2018-10-19T06:40:47.395Z,77.60
2018-10-19T06:43:16.235Z,77.30
2018-10-19T06:45:44.789Z,77.10
2018-10-19T06:48:13.107Z,76.90
2018-10-19T06:50:41.783Z,76.70
2018-10-19T06:53:10.165Z,77.60
2018-10-19T06:55:38.599Z,77.60
2018-10-19T06:58:07.166Z,77.10
2018-10-19T07:00:35.716Z,78.30
2018-10-19T07:03:03.960Z,78.60
2018-10-19T07:05:32.406Z,79.10
2018-10-19T07:08:01.266Z,79.10
2018-10-19T07:10:29.888Z,78.30
2018-10-19T07:12:58.547Z,79.20
2018-10-19T07:15:27.264Z,79.20
2018-10-19T07:17:55.915Z,78.70
2018-10-19T07:20:24.185Z,79.50
2018-10-19T07:22:52.781Z,79.70
2018-10-19T07:25:21.050Z,79.80
2018-10-19T07:27:49.375Z,80.00
2018-10-19T07:30:18.140Z,79.70
2018-10-19T07:32:46.450Z,80.30
2018-10-19T07:35:15.254Z,79.60
2018-10-19T07:37:43.800Z,79.60
2018-10-19T07:40:12.574Z,78.80
2018-10-19T07:42:40.918Z,78.50
2018-10-19T07:45:09.641Z,79.00
2018-10-19T07:47:38.270Z,79.10
2018-10-19T07:50:07.473Z,78.60
2018-10-19T07:52:36.302Z,79.70
2018-10-19T07:55:05.538Z,80.40
2018-10-19T07:57:34.306Z,79.60
2018-10-19T08:00:02.819Z,79.90
2018-10-19T08:02:31.478Z,78.70
2018-10-19T08:05:00.080Z,78.60
2018-10-19T08:07:28.442Z,79.00
2018-10-19T08:09:56.872Z,78.80
2018-10-19T08:12:25.527Z,78.90
2018-10-19T08:15:07.779Z,78.80
2018-10-19T08:17:36.335Z,78.40
2018-10-19T08:20:05.349Z,78.20
2018-10-19T08:22:34.007Z,78.30
2018-10-19T08:25:02.576Z,77.50
2018-10-19T08:27:30.899Z,77.30
2018-10-19T08:29:59.280Z,76.50
2018-10-19T08:32:27.832Z,75.20
2018-10-19T08:34:56.431Z,76.30
2018-10-19T08:37:25.155Z,75.10
2018-10-19T08:39:53.448Z,75.40
2018-10-19T08:42:21.736Z,75.90
2018-10-19T08:44:50.075Z,75.00
2018-10-19T08:47:19.567Z,74.40
2018-10-19T08:49:48.151Z,75.10
2018-10-19T08:52:16.742Z,75.20
2018-10-19T08:54:45.515Z,74.20
2018-10-19T08:57:13.848Z,76.10
2018-10-19T08:59:42.110Z,74.80
2018-10-19T09:02:10.789Z,73.90
2018-10-19T09:04:39.092Z,74.60
2018-10-19T09:07:07.728Z,73.00
2018-10-19T09:09:37.677Z,72.30
2018-10-19T09:12:06.035Z,71.50
2018-10-19T09:15:20.355Z,70.20
2018-10-19T09:17:48.609Z,70.40
2018-10-19T09:20:17.284Z,69.70
2018-10-19T09:22:45.616Z,67.70
2018-10-19T09:25:13.918Z,67.80
2018-10-19T09:27:42.514Z,68.00
2018-10-19T09:30:11.160Z,67.70
2018-10-19T09:32:39.772Z,68.20
2018-10-19T09:35:08.504Z,67.30
2018-10-19T09:37:36.766Z,66.30
2018-10-19T09:40:05.422Z,66.10
2018-10-19T09:42:33.711Z,67.90
2018-10-19T09:45:02.087Z,67.60
2018-10-19T09:47:30.857Z,66.80
2018-10-19T09:49:59.568Z,66.60
2018-10-19T09:52:28.364Z,65.80
2018-10-19T09:54:57.011Z,65.60
2018-10-19T09:57:25.527Z,63.30
2018-10-19T09:59:53.846Z,62.30
2018-10-19T10:02:22.408Z,60.80
2018-10-19T10:04:51.126Z,60.60
2018-10-19T10:07:19.822Z,57.40
2018-10-19T10:09:48.107Z,58.40
2018-10-19T10:12:16.406Z,59.20
2018-10-19T10:15:05.566Z,58.00
2018-10-19T10:17:34.793Z,56.80
2018-10-19T10:20:03.622Z,56.50
2018-10-19T10:22:32.087Z,58.70
2018-10-19T10:25:00.516Z,57.80
2018-10-19T10:27:28.719Z,58.60
2018-10-19T10:29:57.169Z,57.60
2018-10-19T10:32:25.878Z,56.50
2018-10-19T10:34:54.483Z,55.60
2018-10-19T10:37:23.076Z,55.50
2018-10-19T10:39:51.387Z,55.20
2018-10-19T10:42:19.688Z,54.40
2018-10-19T10:44:48.527Z,52.90
2018-10-19T10:47:18.147Z,53.10
2018-10-19T10:49:46.722Z,52.60
2018-10-19T10:52:15.384Z,51.00
2018-10-19T10:54:43.645Z,50.20
2018-10-19T10:57:12.269Z,49.90
2018-10-19T10:59:40.546Z,50.20
2018-10-19T11:02:09.173Z,49.80
2018-10-19T11:04:38.803Z,50.30
2018-10-19T11:07:07.165Z,49.80
2018-10-19T11:09:36.820Z,49.90
2018-10-19T11:12:05.728Z,49.20
2018-10-19T11:14:59.585Z,49.50
2018-10-19T11:17:27.879Z,49.50
2018-10-19T11:19:56.164Z,48.50
2018-10-19T11:22:24.760Z,48.00
2018-10-19T11:24:53.054Z,48.50
2018-10-19T11:27:21.322Z,47.90
2018-10-19T11:29:49.586Z,48.10
2018-10-19T11:32:17.867Z,47.10
2018-10-19T11:34:46.185Z,47.20
2018-10-19T11:37:14.558Z,46.00
2018-10-19T11:39:53.647Z,45.90
2018-10-19T11:42:21.917Z,45.50
2018-10-19T11:44:50.244Z,45.90
2018-10-19T11:47:19.462Z,45.70
2018-10-19T11:49:48.208Z,45.20
2018-10-19T11:52:16.528Z,44.20
2018-10-19T11:54:45.000Z,44.50
2018-10-19T11:57:13.591Z,44.50
2018-10-19T11:59:42.007Z,44.50
2018-10-19T12:02:10.567Z,44.10
2018-10-19T12:04:39.555Z,44.60
2018-10-19T12:07:07.927Z,44.10
2018-10-19T12:09:37.387Z,43.40
2018-10-19T12:12:06.132Z,43.40
2018-10-19T12:15:20.929Z,42.80
2018-10-19T12:17:49.476Z,43.30
2018-10-19T12:20:18.623Z,42.80
2018-10-19T12:22:47.335Z,43.90
2018-10-19T12:25:16.460Z,43.40
2018-10-19T12:27:44.643Z,43.10
2018-10-19T12:30:13.326Z,42.50
2018-10-19T12:32:41.911Z,41.20
2018-10-19T12:35:12.154Z,41.00
2018-10-19T12:37:40.899Z,40.50
2018-10-19T12:40:10.015Z,40.80
2018-10-19T12:42:38.538Z,40.40
2018-10-19T12:45:13.093Z,40.30
2018-10-19T12:47:42.500Z,40.10
2018-10-19T12:50:11.104Z,39.00
2018-10-19T12:52:39.507Z,39.60
2018-10-19T12:55:08.667Z,39.00
2018-10-19T12:57:37.061Z,38.70
2018-10-19T13:00:06.797Z,38.90
2018-10-19T13:02:35.476Z,38.20
2018-10-19T13:05:03.855Z,37.90
2018-10-19T13:07:32.444Z,37.00
2018-10-19T13:10:01.042Z,37.20
2018-10-19T13:12:29.307Z,36.30
2018-10-19T13:15:29.970Z,35.90
2018-10-19T13:17:58.541Z,36.50
2018-10-19T13:20:27.724Z,37.40
2018-10-19T13:22:56.132Z,37.10
2018-10-19T13:25:24.706Z,36.90
2018-10-19T13:27:53.172Z,37.20
2018-10-19T13:30:21.435Z,36.90
2018-10-19T13:32:49.720Z,36.10
2018-10-19T13:35:17.954Z,36.50
2018-10-19T13:37:46.233Z,36.90
2018-10-19T13:40:14.914Z,37.00
2018-10-19T13:42:43.262Z,37.30
2018-10-19T13:45:11.690Z,38.00
2018-10-19T13:47:39.916Z,36.70
2018-10-19T13:50:08.512Z,36.70
2018-10-19T13:52:36.881Z,38.00
2018-10-19T13:55:05.299Z,37.20
2018-10-19T13:57:34.046Z,38.20
2018-10-19T14:00:02.650Z,38.90
2018-10-19T14:02:31.336Z,38.50
2018-10-19T14:05:00.037Z,39.00
2018-10-19T14:07:28.715Z,39.10
2018-10-19T14:09:57.007Z,39.00
2018-10-19T14:12:25.339Z,38.80
2018-10-19T14:15:32.599Z,39.00
2018-10-19T14:18:00.907Z,38.60
2018-10-19T14:20:29.489Z,39.20
2018-10-19T14:22:57.809Z,39.20
2018-10-19T14:25:26.821Z,38.70
2018-10-19T14:27:55.175Z,38.30
2018-10-19T14:30:23.555Z,38.90
2018-10-19T14:32:52.125Z,38.40
2018-10-19T14:35:20.442Z,38.00
2018-10-19T14:37:48.732Z,38.40
2018-10-19T14:40:18.698Z,37.90
2018-10-19T14:42:47.515Z,38.20
2018-10-19T14:45:16.600Z,37.80
2018-10-19T14:47:45.714Z,37.50
2018-10-19T14:50:15.323Z,38.40
2018-10-19T14:52:43.811Z,38.30
2018-10-19T14:55:14.799Z,38.00
2018-10-19T14:57:43.551Z,37.50
2018-10-19T15:00:13.370Z,38.00
2018-10-19T15:02:41.874Z,37.70
2018-10-19T15:05:11.726Z,37.60
2018-10-19T15:07:40.406Z,38.10
2018-10-19T15:10:11.086Z,38.10
2018-10-19T15:12:39.941Z,38.50
2018-10-19T15:15:55.216Z,38.60
2018-10-19T15:18:23.560Z,39.20
2018-10-19T15:20:51.832Z,38.90
2018-10-19T15:23:20.112Z,39.10
2018-10-19T15:25:48.388Z,39.10
2018-10-19T15:28:16.676Z,39.20
2018-10-19T15:30:44.971Z,39.50
2018-10-19T15:33:13.335Z,39.30
2018-10-19T15:35:41.597Z,39.80
2018-10-19T15:38:09.920Z,40.70
2018-10-19T15:40:38.211Z,40.60
2018-10-19T15:43:06.495Z,40.80
2018-10-19T15:45:34.786Z,40.40
2018-10-19T15:48:03.143Z,40.60
2018-10-19T15:50:31.416Z,41.50
2018-10-19T15:52:59.718Z,41.70
2018-10-19T15:55:28.374Z,42.80
2018-10-19T15:57:56.706Z,42.60
2018-10-19T16:00:25.249Z,43.20
2018-10-19T16:02:53.513Z,43.60
2018-10-19T16:05:21.767Z,43.70
2018-10-19T16:07:50.041Z,44.50
2018-10-19T16:10:18.352Z,45.00
2018-10-19T16:12:46.717Z,45.20
2018-10-19T16:18:37.878Z,45.90
2018-10-19T16:21:06.472Z,46.30
2018-10-19T16:23:34.763Z,46.40
2018-10-19T16:26:03.176Z,46.80
2018-10-19T16:28:31.629Z,47.00
2018-10-19T16:30:59.840Z,46.70
2018-10-19T16:33:28.195Z,46.70
2018-10-19T16:35:56.654Z,47.10
2018-10-19T16:38:24.912Z,47.60
2018-10-19T16:40:53.217Z,48.00
2018-10-19T16:43:21.506Z,48.10
2018-10-19T16:45:49.817Z,48.20
2018-10-19T16:48:18.407Z,48.30
2018-10-19T16:50:47.043Z,48.60
2018-10-19T16:53:15.320Z,48.70
2018-10-19T16:55:43.687Z,48.60
2018-10-19T16:58:11.985Z,48.40
2018-10-19T17:00:40.290Z,48.80
2018-10-19T17:03:08.635Z,48.90
2018-10-19T17:05:36.951Z,49.60
2018-10-19T17:08:05.356Z,49.70
2018-10-19T17:10:33.716Z,50.20
2018-10-19T17:13:02.064Z,49.90
2018-10-19T17:18:49.729Z,49.70
2018-10-19T17:21:18.075Z,48.90
2018-10-19T17:23:46.465Z,49.10
2018-10-19T17:26:20.256Z,48.90
2018-10-19T17:28:48.591Z,49.30
2018-10-19T17:31:17.180Z,49.30
2018-10-19T17:33:45.529Z,49.70
2018-10-19T17:36:24.785Z,50.00
2018-10-19T17:38:53.099Z,50.20
2018-10-19T17:41:21.432Z,50.50
2018-10-19T17:43:49.880Z,50.40
2018-10-19T17:46:18.743Z,50.30
2018-10-19T17:48:47.377Z,50.00
2018-10-19T17:51:15.965Z,50.40
2018-10-19T17:53:44.343Z,51.10
2018-10-19T17:56:12.887Z,50.40
2018-10-19T17:58:41.421Z,50.30
2018-10-19T18:01:09.799Z,50.50
2018-10-19T18:03:38.546Z,50.70
2018-10-19T18:06:07.005Z,50.70
2018-10-19T18:08:35.394Z,50.40
2018-10-19T18:11:03.766Z,50.40
2018-10-19T18:13:32.252Z,50.60
2018-10-19T18:19:24.538Z,51.20
2018-10-19T18:21:53.111Z,51.10
2018-10-19T18:24:21.412Z,51.00
2018-10-19T18:26:49.886Z,51.20
2018-10-19T18:29:18.369Z,51.90
2018-10-19T18:31:46.991Z,52.40
2018-10-19T18:34:15.447Z,52.90
2018-10-19T18:36:44.079Z,53.50
2018-10-19T18:39:13.779Z,53.60
2018-10-19T18:41:42.710Z,53.20
2018-10-19T18:44:11.125Z,53.70
2018-10-19T18:46:39.634Z,54.10
2018-10-19T18:49:08.436Z,54.40
2018-10-19T18:51:37.591Z,53.80
2018-10-19T18:54:06.664Z,54.10
2018-10-19T18:56:35.411Z,53.80
2018-10-19T18:59:04.318Z,54.10
2018-10-19T19:01:33.256Z,54.10
2018-10-19T19:04:02.207Z,54.10
2018-10-19T19:06:31.048Z,54.00
2018-10-19T19:08:59.992Z,52.50
2018-10-19T19:11:28.810Z,52.80
2018-10-19T19:13:57.756Z,52.80
2018-10-19T19:17:02.160Z,53.20
2018-10-19T19:19:31.230Z,52.90
2018-10-19T19:22:00.218Z,53.30
2018-10-19T19:24:34.389Z,54.00
2018-10-19T19:27:03.427Z,53.90
2018-10-19T19:29:32.228Z,54.00
2018-10-19T19:32:00.860Z,54.30
2018-10-19T19:34:31.748Z,54.80
2018-10-19T19:37:00.254Z,55.00
2018-10-19T19:39:28.602Z,54.90
2018-10-19T19:42:02.290Z,55.40
2018-10-19T19:44:30.647Z,55.60
2018-10-19T19:46:58.995Z,55.40
2018-10-19T19:49:33.826Z,55.50
2018-10-19T19:52:02.206Z,55.90
2018-10-19T19:54:30.507Z,56.00
2018-10-19T19:56:58.934Z,55.70
2018-10-19T19:59:27.407Z,55.90
2018-10-19T20:01:55.723Z,56.10
2018-10-19T20:04:24.456Z,56.10
2018-10-19T20:06:53.039Z,56.30
2018-10-19T20:09:21.473Z,56.70
2018-10-19T20:11:49.837Z,57.00
2018-10-19T20:14:20.298Z,56.90
2018-10-19T20:17:03.289Z,57.20
2018-10-19T20:19:31.514Z,57.00
2018-10-19T20:22:07.433Z,56.70
2018-10-19T20:24:44.422Z,56.70
2018-10-19T20:27:34.690Z,56.60
2018-10-19T20:30:11.237Z,56.60
2018-10-19T20:32:46.858Z,56.50
2018-10-19T20:35:22.998Z,56.60
2018-10-19T20:37:58.787Z,56.50
2018-10-19T20:40:34.928Z,56.50
2018-10-19T20:43:10.650Z,57.10
2018-10-19T20:45:46.429Z,56.80
2018-10-19T20:48:22.130Z,56.80
2018-10-19T20:50:58.071Z,57.10
2018-10-19T20:53:34.010Z,57.50
2018-10-19T20:56:09.967Z,57.80
2018-10-19T20:58:45.513Z,57.50
2018-10-19T21:01:21.889Z,57.30
2018-10-19T21:03:51.228Z,57.00
2018-10-19T21:06:19.611Z,56.80
2018-10-19T21:08:48.180Z,56.90
2018-10-19T21:11:21.017Z,57.50
2018-10-19T21:13:49.371Z,57.70
2018-10-19T21:16:58.211Z,58.10
2018-10-19T21:19:26.922Z,58.40
2018-10-19T21:21:55.479Z,57.70
2018-10-19T21:24:24.010Z,57.60
2018-10-19T21:26:52.439Z,57.40
2018-10-19T21:29:20.720Z,57.70
2018-10-19T21:31:49.487Z,57.50
2018-10-19T21:34:18.070Z,57.90
2018-10-19T21:36:46.654Z,58.10
2018-10-19T21:39:14.977Z,58.30
2018-10-19T21:41:43.296Z,58.20
2018-10-19T21:44:11.608Z,58.60
2018-10-19T21:46:39.915Z,58.60
2018-10-19T21:49:08.431Z,58.70
2018-10-19T21:51:37.212Z,58.60
2018-10-19T21:54:05.920Z,58.60
2018-10-19T21:56:34.427Z,58.90
2018-10-19T21:59:03.159Z,59.00
2018-10-19T22:01:31.694Z,59.40
2018-10-19T22:03:59.994Z,59.40
2018-10-19T22:06:28.352Z,59.40
2018-10-19T22:08:56.667Z,59.30
2018-10-19T22:11:26.627Z,58.90
2018-10-19T22:13:54.927Z,58.90
2018-10-19T22:16:23.542Z,58.80
2018-10-19T22:18:52.559Z,58.80
2018-10-19T22:21:21.016Z,59.30
2018-10-19T22:23:49.295Z,59.60
2018-10-19T22:26:17.857Z,59.30
2018-10-19T22:28:46.154Z,59.70
2018-10-19T22:31:14.465Z,60.30
2018-10-19T22:33:43.211Z,60.00
2018-10-19T22:36:11.926Z,59.70
2018-10-19T22:38:40.503Z,60.00
2018-10-19T22:41:08.834Z,60.10
2018-10-19T22:43:37.195Z,60.90
2018-10-19T22:46:05.930Z,61.10
2018-10-19T22:48:34.771Z,60.80
2018-10-19T22:51:03.339Z,60.80
2018-10-19T22:53:31.620Z,61.20
2018-10-19T22:55:59.898Z,61.40
2018-10-19T22:58:28.203Z,61.20
2018-10-19T23:00:56.631Z,61.30
2018-10-19T23:03:25.024Z,61.60
2018-10-19T23:05:53.339Z,61.90
2018-10-19T23:08:21.990Z,62.10
2018-10-19T23:10:50.272Z,61.90
2018-10-19T23:13:18.539Z,61.90
2018-10-19T23:15:46.784Z,62.00
2018-10-19T23:18:15.104Z,62.50
2018-10-19T23:20:43.415Z,63.70
2018-10-19T23:23:12.116Z,63.00
2018-10-19T23:25:40.403Z,63.00
2018-10-19T23:28:08.733Z,63.00
2018-10-19T23:30:37.128Z,63.10
2018-10-19T23:33:05.975Z,63.30
2018-10-19T23:35:34.883Z,63.60
2018-10-19T23:38:03.690Z,63.60
2018-10-19T23:40:31.977Z,63.70
2018-10-19T23:43:00.295Z,64.00
2018-10-19T23:45:29.113Z,64.30
2018-10-19T23:47:57.947Z,64.60
2018-10-19T23:50:26.717Z,64.80
2018-10-19T23:52:55.722Z,64.80
2018-10-19T23:55:24.171Z,64.60
2018-10-19T23:57:52.787Z,65.10
